Barnstaple, United Kingdom
Current Conditions -  °F | °C
As of 5:50 AM on Thursday 27 Nov 2014 (Local Time) from EGDX Reporting Station
Moderate Fog Moderate Fog  
Wind Chill: 41°   Ceiling: Unl
Heat Index: 41°   Visibility: 0.37mi
Dew Point: 41°   Wind: 3mph
Humidity: 100%   Direction: 10°N
Pressure: 29.62"   Gusts: NA
Location:  51.08°N, 4.06°W
Report Text: EGDX 270550Z AUTO 01003KT 0600 FG FEW001/// SCT031/// 05/05 Q1003
Loading
Personal Weather Stations






























Interactive Weather Map New forecast layout! Learn more

10-Day Weather Forecast

Advertisements
Track Severe Weather on mobile